createdAt,value
2019-02-17T00:02:08.049Z,10.87
2019-02-17T00:04:39.330Z,11.27
2019-02-17T00:07:09.821Z,10.47
2019-02-17T00:09:40.143Z,10.13
2019-02-17T00:12:11.007Z,10.80
2019-02-17T00:14:41.312Z,11.23
2019-02-17T00:17:11.720Z,13.00
2019-02-17T00:19:42.063Z,12.17
2019-02-17T00:22:12.365Z,12.00
2019-02-17T00:24:42.886Z,13.03
2019-02-17T00:27:13.307Z,13.93
2019-02-17T00:29:43.675Z,13.93
2019-02-17T00:32:14.159Z,14.77
2019-02-17T00:34:44.542Z,15.13
2019-02-17T00:37:14.967Z,14.23
2019-02-17T00:39:45.591Z,15.03
2019-02-17T00:42:16.030Z,15.80
2019-02-17T00:44:46.491Z,15.00
2019-02-17T00:47:18.033Z,16.63
2019-02-17T00:49:50.422Z,17.17
2019-02-17T00:52:21.048Z,14.97
2019-02-17T00:54:51.383Z,14.97
2019-02-17T00:57:22.103Z,14.53
2019-02-17T00:59:52.530Z,15.27
2019-02-17T01:02:25.174Z,14.37
2019-02-17T01:04:55.531Z,15.17
2019-02-17T01:07:28.639Z,16.07
2019-02-17T01:09:59.060Z,14.97
2019-02-17T01:12:29.679Z,14.10
2019-02-17T01:14:59.993Z,15.47
2019-02-17T01:17:30.331Z,14.87
2019-02-17T01:20:00.667Z,17.80
2019-02-17T01:22:31.177Z,15.80
2019-02-17T01:25:01.571Z,14.17
2019-02-17T01:27:32.192Z,14.40
2019-02-17T01:30:02.562Z,15.20
2019-02-17T01:32:33.982Z,16.23
2019-02-17T01:35:04.434Z,15.63
2019-02-17T01:37:34.747Z,17.00
2019-02-17T01:40:05.766Z,13.83
2019-02-17T01:42:36.291Z,16.37
2019-02-17T01:45:07.642Z,12.93
2019-02-17T01:47:38.040Z,15.47
2019-02-17T01:50:08.783Z,11.63
2019-02-17T01:52:39.094Z,13.37
2019-02-17T01:55:09.547Z,13.67
2019-02-17T01:57:41.795Z,12.50
2019-02-17T02:00:12.991Z,13.47
2019-02-17T02:02:43.315Z,13.53
2019-02-17T02:05:13.777Z,16.00
2019-02-17T02:07:44.627Z,14.10
2019-02-17T02:10:16.065Z,15.30
2019-02-17T02:12:47.591Z,13.03
2019-02-17T02:15:17.983Z,13.17
2019-02-17T02:17:48.468Z,13.77
2019-02-17T02:20:18.835Z,12.50
2019-02-17T02:22:49.346Z,12.10
2019-02-17T02:25:19.675Z,13.90
2019-02-17T02:27:52.651Z,12.83
2019-02-17T02:30:23.005Z,12.00
2019-02-17T02:32:53.495Z,12.50
2019-02-17T02:35:23.859Z,14.77
2019-02-17T02:37:54.239Z,13.07
2019-02-17T02:40:24.695Z,13.87
2019-02-17T02:42:56.295Z,15.43
2019-02-17T02:45:26.650Z,13.30
2019-02-17T02:47:57.178Z,14.33
2019-02-17T02:50:27.526Z,13.77
2019-02-17T02:52:59.629Z,13.27
2019-02-17T02:55:31.111Z,16.07
2019-02-17T02:58:01.638Z,15.43
2019-02-17T03:00:34.762Z,15.60
2019-02-17T03:03:05.226Z,15.53
2019-02-17T03:05:37.329Z,15.93
2019-02-17T03:08:08.014Z,14.77
2019-02-17T03:10:38.355Z,13.17
2019-02-17T03:13:09.122Z,13.70
2019-02-17T03:15:39.475Z,12.77
2019-02-17T03:18:10.009Z,14.03
2019-02-17T03:20:40.308Z,13.53
2019-02-17T03:23:10.593Z,11.77
2019-02-17T03:25:41.124Z,12.87
2019-02-17T03:28:11.723Z,12.90
2019-02-17T03:30:42.084Z,13.08
2019-02-17T03:33:12.441Z,13.53
2019-02-17T03:35:42.737Z,13.87
2019-02-17T03:38:13.979Z,12.63
2019-02-17T03:40:44.340Z,13.73
2019-02-17T03:43:15.183Z,15.10
2019-02-17T03:45:45.601Z,13.93
2019-02-17T03:48:15.982Z,15.33
2019-02-17T03:50:46.379Z,14.13
2019-02-17T03:53:16.722Z,14.77
2019-02-17T03:55:47.491Z,17.17
2019-02-17T03:58:17.982Z,16.67
2019-02-17T04:00:48.237Z,18.80
2019-02-17T04:03:18.581Z,18.87
2019-02-17T04:05:49.094Z,19.47
2019-02-17T04:08:19.439Z,18.67
2019-02-17T04:10:49.779Z,17.70
2019-02-17T04:13:20.586Z,18.10
2019-02-17T04:15:50.903Z,21.50
2019-02-17T04:18:21.410Z,19.00
2019-02-17T04:20:51.755Z,21.40
2019-02-17T04:23:30.928Z,22.50
2019-02-17T04:25:56.439Z,21.27
2019-02-17T04:28:27.091Z,21.47
2019-02-17T04:30:57.403Z,20.87
2019-02-17T04:33:29.519Z,20.40
2019-02-17T04:35:59.853Z,21.57
2019-02-17T04:38:30.340Z,20.80
2019-02-17T04:41:00.649Z,18.67
2019-02-17T04:43:31.301Z,19.97
2019-02-17T04:46:03.954Z,20.87
2019-02-17T04:48:34.404Z,21.90
2019-02-17T04:51:04.791Z,19.67
2019-02-17T04:53:37.496Z,19.13
2019-02-17T04:56:07.834Z,20.77
2019-02-17T04:58:38.636Z,23.97
2019-02-17T05:01:08.992Z,24.37
2019-02-17T05:03:39.604Z,23.63
2019-02-17T05:06:09.949Z,22.63
2019-02-17T05:08:43.258Z,25.07
2019-02-17T05:11:13.550Z,23.77
2019-02-17T05:13:44.228Z,23.23
2019-02-17T05:16:14.631Z,22.77
2019-02-17T05:18:44.932Z,22.23
2019-02-17T05:21:15.331Z,23.50
2019-02-17T05:23:45.622Z,23.27
2019-02-17T05:26:16.126Z,22.33
2019-02-17T05:28:46.656Z,20.67
2019-02-17T05:31:17.069Z,21.53
2019-02-17T05:33:47.520Z,24.33
2019-02-17T05:36:18.072Z,23.87
2019-02-17T05:38:48.440Z,21.63
2019-02-17T05:41:19.863Z,23.93
2019-02-17T05:43:50.291Z,23.17
2019-02-17T05:46:23.391Z,21.83
2019-02-17T05:48:55.375Z,22.63
2019-02-17T05:51:25.639Z,23.03
2019-02-17T05:53:57.583Z,21.40
2019-02-17T05:56:28.108Z,22.63
2019-02-17T05:58:58.619Z,20.10
2019-02-17T06:01:28.910Z,22.40
2019-02-17T06:03:59.363Z,21.00
2019-02-17T06:06:31.588Z,20.13
2019-02-17T06:09:01.855Z,22.27
2019-02-17T06:11:33.300Z,22.97
2019-02-17T06:14:03.915Z,19.83
2019-02-17T06:16:34.328Z,20.63
2019-02-17T06:19:04.704Z,19.93
2019-02-17T06:21:40.692Z,19.97
2019-02-17T06:24:10.995Z,21.67
2019-02-17T06:26:41.692Z,23.37
2019-02-17T06:29:12.123Z,22.40
2019-02-17T06:31:42.735Z,21.73
2019-02-17T06:34:13.063Z,22.13
2019-02-17T06:36:43.547Z,23.07
2019-02-17T06:39:13.995Z,20.20
2019-02-17T06:41:44.542Z,22.77
2019-02-17T06:44:15.109Z,23.73
2019-02-17T06:46:49.335Z,24.53
2019-02-17T06:49:19.763Z,22.87
2019-02-17T06:51:50.175Z,21.33
2019-02-17T06:54:20.459Z,21.73
2019-02-17T06:57:18.863Z,21.80
2019-02-17T06:59:50.908Z,24.03
2019-02-17T07:02:21.449Z,22.70
2019-02-17T07:05:22.747Z,21.97
2019-02-17T07:07:53.263Z,19.90
2019-02-17T07:10:23.595Z,21.73
2019-02-17T07:12:54.111Z,23.77
2019-02-17T07:15:25.437Z,23.03
2019-02-17T07:17:55.746Z,21.70
2019-02-17T07:20:26.147Z,21.57
2019-02-17T07:22:56.471Z,23.60
2019-02-17T07:25:30.008Z,23.10
2019-02-17T07:27:59.131Z,24.10
2019-02-17T07:30:29.766Z,19.20
2019-02-17T07:33:00.154Z,19.20
2019-02-17T07:35:30.467Z,19.63
2019-02-17T07:38:01.143Z,19.13
2019-02-17T07:40:31.452Z,20.63
2019-02-17T07:43:01.999Z,20.67
2019-02-17T07:45:32.542Z,21.53
2019-02-17T07:48:02.961Z,21.83
2019-02-17T07:50:33.360Z,22.33
2019-02-17T07:53:03.658Z,22.27
2019-02-17T07:55:33.950Z,19.83
2019-02-17T07:58:04.421Z,20.03
2019-02-17T08:00:34.950Z,19.80
2019-02-17T08:03:05.339Z,21.07
2019-02-17T08:05:35.619Z,20.67
2019-02-17T08:08:06.139Z,20.67
2019-02-17T08:10:36.483Z,19.40
2019-02-17T08:13:07.035Z,20.03
2019-02-17T08:15:37.599Z,19.17
2019-02-17T08:18:08.056Z,20.13
2019-02-17T08:20:38.343Z,18.43
2019-02-17T08:23:08.943Z,20.57
2019-02-17T08:25:39.252Z,19.87
2019-02-17T08:28:09.651Z,21.17
2019-02-17T08:30:40.446Z,20.10
2019-02-17T08:33:10.682Z,21.40
2019-02-17T08:35:41.123Z,20.70
2019-02-17T08:38:11.435Z,21.53
2019-02-17T08:40:41.874Z,20.87
2019-02-17T08:43:12.282Z,18.83
2019-02-17T08:45:42.687Z,18.87
2019-02-17T08:48:13.227Z,22.40
2019-02-17T08:50:43.563Z,21.03
2019-02-17T08:53:14.044Z,20.57
2019-02-17T08:55:44.267Z,22.87
2019-02-17T08:58:14.719Z,22.77
2019-02-17T09:00:45.372Z,22.73
2019-02-17T09:03:15.734Z,22.00
2019-02-17T09:05:46.575Z,17.27
2019-02-17T09:08:16.953Z,20.73
2019-02-17T09:10:47.299Z,22.03
2019-02-17T09:13:19.343Z,21.97
2019-02-17T09:15:52.483Z,19.70
2019-02-17T09:18:24.001Z,19.87
2019-02-17T09:20:54.564Z,19.60
2019-02-17T09:23:26.456Z,20.63
2019-02-17T09:25:56.814Z,21.67
2019-02-17T09:28:27.163Z,19.33
2019-02-17T09:30:57.647Z,20.43
2019-02-17T09:33:28.204Z,20.30
2019-02-17T09:35:58.558Z,19.13
2019-02-17T09:38:28.979Z,20.53
2019-02-17T09:40:59.268Z,21.73
2019-02-17T09:43:32.198Z,18.60
2019-02-17T09:46:02.687Z,18.67
2019-02-17T09:48:33.170Z,17.53
2019-02-17T09:51:03.470Z,16.50
2019-02-17T09:53:33.895Z,16.27
2019-02-17T09:56:05.305Z,16.43
2019-02-17T09:58:35.772Z,17.23
2019-02-17T10:01:06.330Z,18.30
2019-02-17T10:03:36.718Z,15.67
2019-02-17T10:06:07.143Z,15.30
2019-02-17T10:08:37.546Z,16.17
2019-02-17T10:11:08.073Z,15.17
2019-02-17T10:13:38.579Z,15.00
2019-02-17T10:16:09.181Z,14.23
2019-02-17T10:18:39.592Z,13.47
2019-02-17T10:21:10.336Z,13.37
2019-02-17T10:23:40.791Z,11.50
2019-02-17T10:26:11.361Z,12.40
2019-02-17T10:28:42.518Z,11.20
2019-02-17T10:31:13.247Z,11.17
2019-02-17T10:33:43.731Z,13.63
2019-02-17T10:36:14.263Z,14.10
2019-02-17T10:38:44.598Z,14.87
2019-02-17T10:41:15.135Z,13.40
2019-02-17T10:43:45.507Z,13.00
2019-02-17T10:46:16.255Z,14.43
2019-02-17T10:48:51.775Z,15.00
2019-02-17T10:51:26.591Z,15.10
2019-02-17T10:53:59.083Z,13.30
2019-02-17T10:56:29.661Z,12.87
2019-02-17T10:58:59.983Z,12.97
2019-02-17T11:01:30.464Z,12.67
2019-02-17T11:04:06.163Z,13.83
2019-02-17T11:06:36.727Z,13.80
2019-02-17T11:09:20.306Z,12.80
2019-02-17T11:11:51.151Z,11.70
2019-02-17T11:14:21.555Z,10.77
2019-02-17T11:16:52.374Z,11.53
2019-02-17T11:19:22.771Z,11.10
2019-02-17T11:21:56.010Z,10.93
2019-02-17T11:24:26.456Z,11.23
2019-02-17T11:26:58.920Z,10.87
2019-02-17T11:29:30.221Z,10.33
2019-02-17T11:32:01.319Z,10.50
2019-02-17T11:34:31.703Z,11.17
2019-02-17T11:37:02.119Z,12.47
2019-02-17T11:39:32.496Z,11.30
2019-02-17T11:42:03.117Z,10.33
2019-02-17T11:44:33.450Z,10.17
2019-02-17T11:47:04.130Z,9.60
2019-02-17T11:49:34.478Z,9.53
2019-02-17T11:52:05.236Z,11.00
2019-02-17T11:54:35.573Z,9.73
2019-02-17T11:57:05.949Z,10.20
2019-02-17T11:59:36.485Z,10.07
2019-02-17T12:02:07.127Z,9.43
2019-02-17T12:04:37.519Z,9.73
2019-02-17T12:07:08.062Z,9.43
2019-02-17T12:09:38.385Z,10.30
2019-02-17T12:12:08.738Z,9.93
2019-02-17T12:14:39.133Z,9.97
2019-02-17T12:17:09.769Z,9.63
2019-02-17T12:19:40.239Z,10.83
2019-02-17T12:22:29.995Z,10.13
2019-02-17T12:25:07.187Z,10.47
2019-02-17T12:28:05.677Z,10.43
2019-02-17T12:30:36.827Z,11.60
2019-02-17T12:33:17.765Z,11.80
2019-02-17T12:35:39.344Z,11.43
2019-02-17T12:38:09.733Z,11.23
2019-02-17T12:40:40.177Z,10.67
2019-02-17T12:43:10.502Z,11.20
2019-02-17T12:45:41.103Z,12.43
2019-02-17T12:48:11.514Z,11.40
2019-02-17T12:50:44.450Z,11.87
2019-02-17T12:53:14.741Z,13.03
2019-02-17T12:55:45.211Z,14.03
2019-02-17T12:58:15.526Z,14.83
2019-02-17T13:00:46.144Z,15.13
2019-02-17T13:03:16.531Z,16.17
2019-02-17T13:05:47.020Z,16.43
2019-02-17T13:08:17.542Z,16.43
2019-02-17T13:10:48.067Z,15.27
2019-02-17T13:13:18.467Z,16.80
2019-02-17T13:15:48.878Z,15.83
2019-02-17T13:18:19.407Z,17.10
2019-02-17T13:20:50.639Z,16.53
2019-02-17T13:23:20.991Z,17.70
2019-02-17T13:25:51.419Z,18.47
2019-02-17T13:28:21.712Z,19.33
2019-02-17T13:30:53.716Z,18.40
2019-02-17T13:33:24.358Z,19.87
2019-02-17T13:35:54.799Z,20.83
2019-02-17T13:38:25.143Z,20.50
2019-02-17T13:40:55.499Z,19.37
2019-02-17T13:43:26.042Z,18.77
2019-02-17T13:45:56.394Z,19.63
2019-02-17T13:48:26.919Z,18.30
2019-02-17T13:50:57.299Z,19.97
2019-02-17T13:53:27.651Z,19.73
2019-02-17T13:55:57.972Z,19.37
2019-02-17T13:58:28.308Z,20.47
2019-02-17T14:00:58.638Z,20.23
2019-02-17T14:03:32.467Z,21.30
2019-02-17T14:06:02.984Z,21.20
2019-02-17T14:08:34.377Z,20.03
2019-02-17T14:11:04.921Z,19.97
2019-02-17T14:13:35.263Z,19.80
2019-02-17T14:16:05.747Z,17.87
2019-02-17T14:18:42.719Z,20.57
2019-02-17T14:21:13.049Z,18.83
2019-02-17T14:23:43.539Z,19.83
2019-02-17T14:26:13.911Z,20.57
2019-02-17T14:28:44.350Z,19.90
2019-02-17T14:31:14.726Z,18.67
2019-02-17T14:33:45.251Z,19.70
2019-02-17T14:36:15.607Z,20.50
2019-02-17T14:38:46.026Z,20.53
2019-02-17T14:41:16.401Z,20.27
2019-02-17T14:43:46.683Z,19.53
2019-02-17T14:46:17.136Z,19.60
2019-02-17T14:48:47.611Z,19.97
2019-02-17T14:51:17.981Z,21.30
2019-02-17T14:53:48.335Z,20.60
2019-02-17T14:56:19.153Z,21.23
2019-02-17T14:58:49.735Z,21.87
2019-02-17T15:01:20.339Z,20.90
2019-02-17T15:03:51.905Z,22.50
2019-02-17T15:06:22.424Z,24.00
2019-02-17T15:08:56.062Z,23.27
2019-02-17T15:11:26.457Z,23.17
2019-02-17T15:13:56.842Z,22.40
2019-02-17T15:16:27.509Z,22.73
2019-02-17T15:18:58.374Z,22.27
2019-02-17T15:21:29.103Z,21.50
2019-02-17T15:23:59.667Z,21.80
2019-02-17T15:26:30.775Z,22.87
2019-02-17T15:29:01.155Z,21.93
2019-02-17T15:31:31.620Z,21.80
2019-02-17T15:34:02.363Z,23.77
2019-02-17T15:36:32.916Z,25.03
2019-02-17T15:39:05.920Z,24.67
2019-02-17T15:41:36.399Z,28.87
2019-02-17T15:44:06.995Z,26.57
2019-02-17T15:46:37.395Z,27.40
2019-02-17T15:49:08.005Z,27.80
2019-02-17T15:51:38.575Z,26.20
2019-02-17T15:54:09.767Z,26.80
2019-02-17T15:56:40.259Z,27.13
2019-02-17T15:59:11.176Z,27.23
2019-02-17T16:01:41.601Z,29.87
2019-02-17T16:04:12.899Z,27.47
2019-02-17T16:06:43.294Z,27.47
2019-02-17T16:09:16.895Z,27.63
2019-02-17T16:11:47.375Z,29.77
2019-02-17T16:14:17.987Z,28.77
2019-02-17T16:16:51.488Z,33.57
2019-02-17T16:19:22.195Z,32.80
2019-02-17T16:21:52.595Z,34.27
2019-02-17T16:24:23.261Z,34.03
2019-02-17T16:26:53.608Z,34.07
2019-02-17T16:29:23.916Z,39.53
2019-02-17T16:31:54.591Z,47.78
2019-02-17T16:34:25.291Z,45.77
2019-02-17T16:36:55.828Z,38.20
2019-02-17T16:39:26.815Z,44.05
2019-02-17T16:41:57.435Z,46.90
2019-02-17T16:44:27.804Z,42.63
2019-02-17T16:46:58.276Z,44.33
2019-02-17T16:49:28.881Z,45.50
2019-02-17T16:51:59.436Z,36.17
2019-02-17T16:54:29.795Z,39.10
2019-02-17T16:57:00.351Z,37.63
2019-02-17T16:59:30.808Z,39.53
2019-02-17T17:02:01.491Z,43.13
2019-02-17T17:04:32.230Z,39.63
2019-02-17T17:07:03.948Z,38.30
2019-02-17T17:09:34.427Z,42.23
2019-02-17T17:12:05.490Z,41.93
2019-02-17T17:14:35.770Z,43.10
2019-02-17T17:17:06.521Z,35.57
2019-02-17T17:19:40.142Z,36.50
2019-02-17T17:22:10.718Z,37.97
2019-02-17T17:24:41.159Z,43.43
2019-02-17T17:27:11.994Z,37.87
2019-02-17T17:29:42.360Z,41.83
2019-02-17T17:32:13.211Z,37.43
2019-02-17T17:34:44.063Z,44.10
2019-02-17T17:37:16.107Z,42.30
2019-02-17T17:39:46.598Z,44.33
2019-02-17T17:42:17.743Z,36.77
2019-02-17T17:44:48.236Z,42.27
2019-02-17T17:47:19.264Z,44.57
2019-02-17T17:49:49.867Z,37.93
2019-02-17T17:52:20.495Z,43.67
2019-02-17T17:54:50.862Z,46.97
2019-02-17T17:57:21.443Z,44.33
2019-02-17T17:59:51.831Z,44.67
2019-02-17T18:02:22.596Z,40.73
2019-02-17T18:04:53.279Z,42.03
2019-02-17T18:07:23.791Z,40.90
2019-02-17T18:09:54.218Z,38.53
2019-02-17T18:12:24.524Z,50.17
2019-02-17T18:14:55.053Z,43.73
2019-02-17T18:17:25.543Z,61.35
2019-02-17T18:19:56.545Z,41.60
2019-02-17T18:22:27.030Z,48.50
2019-02-17T18:24:57.735Z,52.73
2019-02-17T18:27:28.228Z,44.03
2019-02-17T18:29:59.127Z,46.10
2019-02-17T18:32:29.587Z,49.33
2019-02-17T18:35:03.407Z,42.97
2019-02-17T18:37:33.997Z,45.00
2019-02-17T18:40:05.085Z,43.50
2019-02-17T18:42:35.518Z,50.63
2019-02-17T18:45:06.709Z,49.30
2019-02-17T18:47:38.291Z,41.27
2019-02-17T18:50:11.251Z,44.53
2019-02-17T18:52:42.395Z,46.50
2019-02-17T18:55:14.175Z,42.10
2019-02-17T18:57:50.665Z,39.77
2019-02-17T19:00:19.844Z,36.40
2019-02-17T19:02:50.418Z,38.03
2019-02-17T19:05:31.931Z,41.53
2019-02-17T19:07:58.606Z,38.33
2019-02-17T19:10:35.456Z,34.93
2019-02-17T19:13:06.772Z,35.67
2019-02-17T19:15:37.411Z,34.97
2019-02-17T19:18:13.314Z,29.63
2019-02-17T19:20:44.032Z,34.63
2019-02-17T19:23:15.158Z,36.27
2019-02-17T19:25:45.555Z,32.47
2019-02-17T19:28:15.915Z,34.03
2019-02-17T19:30:48.893Z,34.30
2019-02-17T19:33:19.766Z,34.03
2019-02-17T19:35:50.512Z,33.77
2019-02-17T19:38:24.471Z,39.70
2019-02-17T19:40:54.939Z,29.23
2019-02-17T19:43:25.468Z,33.73
2019-02-17T19:45:55.981Z,40.57
2019-02-17T19:48:26.635Z,33.20
2019-02-17T19:50:58.555Z,30.90
2019-02-17T19:53:29.124Z,37.57
2019-02-17T19:55:59.890Z,32.17
2019-02-17T19:58:30.419Z,36.57
2019-02-17T20:01:02.112Z,30.20
2019-02-17T20:03:51.023Z,37.23
2019-02-17T20:06:25.888Z,39.43
2019-02-17T20:08:56.663Z,31.43
2019-02-17T20:11:28.879Z,38.50
2019-02-17T20:13:59.496Z,42.00
2019-02-17T20:16:29.858Z,33.93
2019-02-17T20:19:00.703Z,32.30
2019-02-17T20:21:31.535Z,35.60
2019-02-17T20:24:08.188Z,31.00
2019-02-17T20:26:38.651Z,36.90
2019-02-17T20:29:09.159Z,34.13
2019-02-17T20:31:42.228Z,29.23
2019-02-17T20:34:16.167Z,35.13
2019-02-17T20:36:46.680Z,37.50
2019-02-17T20:39:17.382Z,34.20
2019-02-17T20:41:48.047Z,32.70
2019-02-17T20:44:18.575Z,36.10
2019-02-17T20:46:49.191Z,34.93
2019-02-17T20:49:20.100Z,31.27
2019-02-17T20:51:51.084Z,32.90
2019-02-17T20:54:23.179Z,36.80
2019-02-17T20:56:53.583Z,31.47
2019-02-17T20:59:24.515Z,35.37
2019-02-17T21:01:55.064Z,41.83
2019-02-17T21:04:25.671Z,35.10
2019-02-17T21:06:56.412Z,35.07
2019-02-17T21:09:27.091Z,41.47
2019-02-17T21:12:02.654Z,38.20
2019-02-17T21:14:33.398Z,31.77
2019-02-17T21:17:04.852Z,44.20
2019-02-17T21:19:35.512Z,40.77
2019-02-17T21:22:06.256Z,38.27
2019-02-17T21:24:37.036Z,40.43
2019-02-17T21:27:07.536Z,39.57
2019-02-17T21:29:44.364Z,39.20
2019-02-17T21:32:17.651Z,44.77
2019-02-17T21:34:48.374Z,36.03
2019-02-17T21:37:18.795Z,40.17
2019-02-17T21:39:51.346Z,41.67
2019-02-17T21:42:23.167Z,32.30
2019-02-17T21:44:57.854Z,36.70
2019-02-17T21:47:28.314Z,33.00
2019-02-17T21:50:03.406Z,44.37
2019-02-17T21:52:34.085Z,50.47
2019-02-17T21:55:05.931Z,40.30
2019-02-17T21:57:36.563Z,45.27
2019-02-17T22:00:11.476Z,52.97
2019-02-17T22:02:42.057Z,45.60
2019-02-17T22:05:13.776Z,47.00
2019-02-17T22:07:44.181Z,51.10
2019-02-17T22:10:15.496Z,51.27
2019-02-17T22:12:51.162Z,53.67
2019-02-17T22:15:21.791Z,48.23
2019-02-17T22:17:52.059Z,56.33
2019-02-17T22:20:25.823Z,57.00
2019-02-17T22:22:56.655Z,54.43
2019-02-17T22:25:29.961Z,51.17
2019-02-17T22:28:00.351Z,51.20
2019-02-17T22:30:33.352Z,53.60
2019-02-17T22:33:03.791Z,55.23
2019-02-17T22:35:34.384Z,58.40
2019-02-17T22:38:04.946Z,57.33
2019-02-17T22:40:35.743Z,58.57
2019-02-17T22:43:06.435Z,59.77
2019-02-17T22:45:37.017Z,56.53
2019-02-17T22:48:07.379Z,59.33
2019-02-17T22:50:38.035Z,58.50
2019-02-17T22:53:08.675Z,62.00
2019-02-17T22:55:39.379Z,62.63
2019-02-17T22:58:09.993Z,60.80
2019-02-17T23:00:57.159Z,62.73
2019-02-17T23:03:30.105Z,57.87
2019-02-17T23:06:00.799Z,59.73
2019-02-17T23:08:31.150Z,64.50
2019-02-17T23:11:02.739Z,62.57
2019-02-17T23:13:33.418Z,62.43
2019-02-17T23:16:06.311Z,58.60
2019-02-17T23:18:36.655Z,58.80
2019-02-17T23:21:07.663Z,59.67
2019-02-17T23:23:38.335Z,57.13
2019-02-17T23:26:08.943Z,52.63
2019-02-17T23:28:39.460Z,53.47
2019-02-17T23:31:11.171Z,57.80
2019-02-17T23:33:41.816Z,54.40
2019-02-17T23:36:12.603Z,53.80
2019-02-17T23:38:43.266Z,52.50
2019-02-17T23:41:13.726Z,52.80
2019-02-17T23:43:44.067Z,48.93
2019-02-17T23:46:14.671Z,51.07
2019-02-17T23:48:45.017Z,48.87
2019-02-17T23:51:15.513Z,49.20
2019-02-17T23:53:46.340Z,48.33
2019-02-17T23:56:16.995Z,48.37
2019-02-17T23:58:47.424Z,46.53
